sensor_id;sensor_type;location;lat;lon;timestamp;P1;durP1;ratioP1;P2;durP2;ratioP2
42840;SDS011;28491;46.898;7.660;2023-07-22T00:00:42;5.43;;;2.58;;
42840;SDS011;28491;46.898;7.660;2023-07-22T00:03:08;3.78;;;2.53;;
42840;SDS011;28491;46.898;7.660;2023-07-22T00:05:34;5.72;;;3.40;;
42840;SDS011;28491;46.898;7.660;2023-07-22T00:07:59;10.90;;;2.90;;
42840;SDS011;28491;46.898;7.660;2023-07-22T00:10:25;3.95;;;2.78;;
42840;SDS011;28491;46.898;7.660;2023-07-22T00:12:50;6.50;;;3.28;;
42840;SDS011;28491;46.898;7.660;2023-07-22T00:15:16;6.15;;;3.00;;
42840;SDS011;28491;46.898;7.660;2023-07-22T00:17:41;9.57;;;3.45;;
42840;SDS011;28491;46.898;7.660;2023-07-22T00:20:08;6.97;;;2.50;;
42840;SDS011;28491;46.898;7.660;2023-07-22T00:22:40;6.68;;;2.38;;
42840;SDS011;28491;46.898;7.660;2023-07-22T00:27:34;3.88;;;2.55;;
42840;SDS011;28491;46.898;7.660;2023-07-22T00:30:00;6.70;;;3.53;;
42840;SDS011;28491;46.898;7.660;2023-07-22T00:32:26;4.68;;;3.10;;
42840;SDS011;28491;46.898;7.660;2023-07-22T00:34:51;6.07;;;2.63;;
42840;SDS011;28491;46.898;7.660;2023-07-22T00:37:17;4.43;;;3.17;;
42840;SDS011;28491;46.898;7.660;2023-07-22T00:39:43;3.92;;;2.75;;
42840;SDS011;28491;46.898;7.660;2023-07-22T00:42:08;4.18;;;2.97;;
42840;SDS011;28491;46.898;7.660;2023-07-22T00:44:34;3.85;;;2.40;;
42840;SDS011;28491;46.898;7.660;2023-07-22T00:46:59;4.38;;;2.80;;
42840;SDS011;28491;46.898;7.660;2023-07-22T00:49:26;4.00;;;2.67;;
42840;SDS011;28491;46.898;7.660;2023-07-22T00:51:55;4.67;;;2.97;;
42840;SDS011;28491;46.898;7.660;2023-07-22T00:54:25;6.95;;;2.78;;
42840;SDS011;28491;46.898;7.660;2023-07-22T00:56:51;5.10;;;2.60;;
42840;SDS011;28491;46.898;7.660;2023-07-22T00:59:17;8.15;;;3.20;;
42840;SDS011;28491;46.898;7.660;2023-07-22T01:01:42;4.63;;;2.92;;
42840;SDS011;28491;46.898;7.660;2023-07-22T01:04:08;10.25;;;3.05;;
42840;SDS011;28491;46.898;7.660;2023-07-22T01:06:34;4.82;;;2.65;;
42840;SDS011;28491;46.898;7.660;2023-07-22T01:09:00;5.55;;;3.53;;
42840;SDS011;28491;46.898;7.660;2023-07-22T01:11:26;4.50;;;2.63;;
42840;SDS011;28491;46.898;7.660;2023-07-22T01:13:51;3.40;;;2.17;;
42840;SDS011;28491;46.898;7.660;2023-07-22T01:16:23;4.63;;;2.47;;
42840;SDS011;28491;46.898;7.660;2023-07-22T01:18:49;6.38;;;2.10;;
42840;SDS011;28491;46.898;7.660;2023-07-22T01:21:15;3.90;;;2.28;;
42840;SDS011;28491;46.898;7.660;2023-07-22T01:23:41;5.97;;;3.03;;
42840;SDS011;28491;46.898;7.660;2023-07-22T01:26:07;5.57;;;3.17;;
42840;SDS011;28491;46.898;7.660;2023-07-22T01:28:36;3.78;;;2.40;;
42840;SDS011;28491;46.898;7.660;2023-07-22T01:31:02;3.67;;;2.20;;
42840;SDS011;28491;46.898;7.660;2023-07-22T01:33:27;4.45;;;2.58;;
42840;SDS011;28491;46.898;7.660;2023-07-22T01:35:53;7.50;;;3.17;;
42840;SDS011;28491;46.898;7.660;2023-07-22T01:38:18;3.72;;;2.35;;
42840;SDS011;28491;46.898;7.660;2023-07-22T01:40:44;3.13;;;2.05;;
42840;SDS011;28491;46.898;7.660;2023-07-22T01:43:10;6.43;;;2.20;;
42840;SDS011;28491;46.898;7.660;2023-07-22T01:45:35;3.78;;;2.60;;
42840;SDS011;28491;46.898;7.660;2023-07-22T01:48:02;4.40;;;2.88;;
42840;SDS011;28491;46.898;7.660;2023-07-22T01:50:28;4.90;;;2.38;;
42840;SDS011;28491;46.898;7.660;2023-07-22T01:52:54;5.25;;;2.95;;
42840;SDS011;28491;46.898;7.660;2023-07-22T01:55:20;4.10;;;2.55;;
42840;SDS011;28491;46.898;7.660;2023-07-22T01:57:46;5.47;;;3.20;;
42840;SDS011;28491;46.898;7.660;2023-07-22T02:00:11;4.00;;;2.35;;
42840;SDS011;28491;46.898;7.660;2023-07-22T02:02:37;7.75;;;2.75;;
42840;SDS011;28491;46.898;7.660;2023-07-22T02:05:03;5.13;;;2.53;;
42840;SDS011;28491;46.898;7.660;2023-07-22T02:07:29;5.63;;;2.97;;
42840;SDS011;28491;46.898;7.660;2023-07-22T02:09:54;6.32;;;2.60;;
42840;SDS011;28491;46.898;7.660;2023-07-22T02:12:20;5.32;;;3.00;;
42840;SDS011;28491;46.898;7.660;2023-07-22T02:14:45;10.13;;;2.92;;
42840;SDS011;28491;46.898;7.660;2023-07-22T02:17:11;5.93;;;3.15;;
42840;SDS011;28491;46.898;7.660;2023-07-22T02:19:37;7.30;;;2.50;;
42840;SDS011;28491;46.898;7.660;2023-07-22T02:22:03;4.82;;;2.80;;
42840;SDS011;28491;46.898;7.660;2023-07-22T02:24:29;4.90;;;2.30;;
42840;SDS011;28491;46.898;7.660;2023-07-22T02:26:55;5.68;;;2.45;;
42840;SDS011;28491;46.898;7.660;2023-07-22T02:29:21;5.53;;;2.25;;
42840;SDS011;28491;46.898;7.660;2023-07-22T02:31:46;5.80;;;3.22;;
42840;SDS011;28491;46.898;7.660;2023-07-22T02:34:12;7.85;;;2.90;;
42840;SDS011;28491;46.898;7.660;2023-07-22T02:36:37;4.90;;;2.78;;
42840;SDS011;28491;46.898;7.660;2023-07-22T02:39:03;5.43;;;2.92;;
42840;SDS011;28491;46.898;7.660;2023-07-22T02:41:29;6.35;;;3.05;;
42840;SDS011;28491;46.898;7.660;2023-07-22T02:43:54;5.85;;;3.30;;
42840;SDS011;28491;46.898;7.660;2023-07-22T02:46:20;8.95;;;2.75;;
42840;SDS011;28491;46.898;7.660;2023-07-22T02:48:46;5.53;;;2.67;;
42840;SDS011;28491;46.898;7.660;2023-07-22T02:51:12;5.43;;;2.53;;
42840;SDS011;28491;46.898;7.660;2023-07-22T02:53:37;6.10;;;2.83;;
42840;SDS011;28491;46.898;7.660;2023-07-22T02:56:03;5.85;;;2.95;;
42840;SDS011;28491;46.898;7.660;2023-07-22T02:58:32;5.78;;;2.75;;
42840;SDS011;28491;46.898;7.660;2023-07-22T03:00:59;4.35;;;2.78;;
42840;SDS011;28491;46.898;7.660;2023-07-22T03:03:25;4.75;;;2.88;;
42840;SDS011;28491;46.898;7.660;2023-07-22T03:05:50;7.00;;;2.65;;
42840;SDS011;28491;46.898;7.660;2023-07-22T03:08:17;4.22;;;2.20;;
42840;SDS011;28491;46.898;7.660;2023-07-22T03:10:43;5.32;;;2.67;;
42840;SDS011;28491;46.898;7.660;2023-07-22T03:13:13;10.02;;;2.92;;
42840;SDS011;28491;46.898;7.660;2023-07-22T03:15:42;5.75;;;2.70;;
42840;SDS011;28491;46.898;7.660;2023-07-22T03:18:08;4.20;;;2.53;;
42840;SDS011;28491;46.898;7.660;2023-07-22T03:20:35;6.40;;;2.47;;
42840;SDS011;28491;46.898;7.660;2023-07-22T03:23:01;3.97;;;2.42;;
42840;SDS011;28491;46.898;7.660;2023-07-22T03:25:27;5.75;;;2.58;;
42840;SDS011;28491;46.898;7.660;2023-07-22T03:27:53;4.78;;;2.78;;
42840;SDS011;28491;46.898;7.660;2023-07-22T03:30:21;4.72;;;2.75;;
42840;SDS011;28491;46.898;7.660;2023-07-22T03:32:47;11.30;;;3.42;;
42840;SDS011;28491;46.898;7.660;2023-07-22T03:35:15;3.85;;;2.40;;
42840;SDS011;28491;46.898;7.660;2023-07-22T03:37:41;5.80;;;2.75;;
42840;SDS011;28491;46.898;7.660;2023-07-22T03:40:07;6.53;;;2.88;;
42840;SDS011;28491;46.898;7.660;2023-07-22T03:42:47;4.22;;;2.65;;
42840;SDS011;28491;46.898;7.660;2023-07-22T03:45:17;5.57;;;3.03;;
42840;SDS011;28491;46.898;7.660;2023-07-22T03:47:44;4.50;;;2.80;;
42840;SDS011;28491;46.898;7.660;2023-07-22T03:50:10;4.80;;;2.67;;
42840;SDS011;28491;46.898;7.660;2023-07-22T03:52:36;5.10;;;3.20;;
42840;SDS011;28491;46.898;7.660;2023-07-22T03:55:02;6.78;;;2.38;;
42840;SDS011;28491;46.898;7.660;2023-07-22T03:57:28;6.75;;;3.13;;
42840;SDS011;28491;46.898;7.660;2023-07-22T03:59:54;6.45;;;2.60;;
42840;SDS011;28491;46.898;7.660;2023-07-22T04:02:20;4.53;;;2.40;;
42840;SDS011;28491;46.898;7.660;2023-07-22T04:04:46;3.15;;;2.03;;
42840;SDS011;28491;46.898;7.660;2023-07-22T04:07:12;5.70;;;2.60;;
42840;SDS011;28491;46.898;7.660;2023-07-22T04:09:37;9.95;;;3.00;;
42840;SDS011;28491;46.898;7.660;2023-07-22T04:12:03;4.10;;;2.47;;
42840;SDS011;28491;46.898;7.660;2023-07-22T04:14:29;5.80;;;2.47;;
42840;SDS011;28491;46.898;7.660;2023-07-22T04:16:55;5.95;;;2.60;;
42840;SDS011;28491;46.898;7.660;2023-07-22T04:19:20;5.72;;;3.05;;
42840;SDS011;28491;46.898;7.660;2023-07-22T04:21:46;4.10;;;2.58;;
42840;SDS011;28491;46.898;7.660;2023-07-22T04:24:11;6.35;;;3.10;;
42840;SDS011;28491;46.898;7.660;2023-07-22T04:26:37;8.77;;;2.55;;
42840;SDS011;28491;46.898;7.660;2023-07-22T04:29:02;6.72;;;3.33;;
42840;SDS011;28491;46.898;7.660;2023-07-22T04:31:28;6.40;;;3.08;;
42840;SDS011;28491;46.898;7.660;2023-07-22T04:33:54;6.03;;;2.90;;
42840;SDS011;28491;46.898;7.660;2023-07-22T04:36:19;5.97;;;2.58;;
42840;SDS011;28491;46.898;7.660;2023-07-22T04:38:45;4.35;;;2.75;;
42840;SDS011;28491;46.898;7.660;2023-07-22T04:41:10;4.80;;;2.60;;
42840;SDS011;28491;46.898;7.660;2023-07-22T04:43:36;5.90;;;2.58;;
42840;SDS011;28491;46.898;7.660;2023-07-22T04:46:01;7.93;;;2.50;;
42840;SDS011;28491;46.898;7.660;2023-07-22T04:48:27;4.45;;;2.63;;
42840;SDS011;28491;46.898;7.660;2023-07-22T04:50:53;5.15;;;2.45;;
42840;SDS011;28491;46.898;7.660;2023-07-22T04:53:18;3.65;;;2.40;;
42840;SDS011;28491;46.898;7.660;2023-07-22T04:55:44;6.80;;;3.08;;
42840;SDS011;28491;46.898;7.660;2023-07-22T04:58:10;5.10;;;2.55;;
42840;SDS011;28491;46.898;7.660;2023-07-22T05:00:36;6.38;;;2.78;;
42840;SDS011;28491;46.898;7.660;2023-07-22T05:03:04;10.45;;;3.95;;
42840;SDS011;28491;46.898;7.660;2023-07-22T05:05:31;4.97;;;3.33;;
42840;SDS011;28491;46.898;7.660;2023-07-22T05:07:57;5.78;;;2.78;;
42840;SDS011;28491;46.898;7.660;2023-07-22T05:10:23;7.00;;;3.05;;
42840;SDS011;28491;46.898;7.660;2023-07-22T05:12:48;3.28;;;2.20;;
42840;SDS011;28491;46.898;7.660;2023-07-22T05:15:14;6.00;;;2.63;;
42840;SDS011;28491;46.898;7.660;2023-07-22T05:17:40;6.68;;;2.92;;
42840;SDS011;28491;46.898;7.660;2023-07-22T05:20:06;4.43;;;2.67;;
42840;SDS011;28491;46.898;7.660;2023-07-22T05:22:35;4.55;;;2.88;;
42840;SDS011;28491;46.898;7.660;2023-07-22T05:25:01;4.50;;;2.78;;
42840;SDS011;28491;46.898;7.660;2023-07-22T05:27:27;6.70;;;2.70;;
42840;SDS011;28491;46.898;7.660;2023-07-22T05:29:54;4.45;;;3.05;;
42840;SDS011;28491;46.898;7.660;2023-07-22T05:32:20;4.35;;;2.70;;
42840;SDS011;28491;46.898;7.660;2023-07-22T05:34:45;4.97;;;3.45;;
42840;SDS011;28491;46.898;7.660;2023-07-22T05:37:11;8.25;;;2.55;;
42840;SDS011;28491;46.898;7.660;2023-07-22T05:39:36;4.25;;;2.80;;
42840;SDS011;28491;46.898;7.660;2023-07-22T05:42:02;5.07;;;2.22;;
42840;SDS011;28491;46.898;7.660;2023-07-22T05:44:28;4.20;;;2.40;;
42840;SDS011;28491;46.898;7.660;2023-07-22T05:46:53;6.60;;;2.80;;
42840;SDS011;28491;46.898;7.660;2023-07-22T05:49:20;3.53;;;2.33;;
42840;SDS011;28491;46.898;7.660;2023-07-22T05:51:45;4.07;;;2.60;;
42840;SDS011;28491;46.898;7.660;2023-07-22T05:54:11;3.70;;;2.70;;
42840;SDS011;28491;46.898;7.660;2023-07-22T05:56:37;6.38;;;2.55;;
42840;SDS011;28491;46.898;7.660;2023-07-22T05:59:02;3.72;;;2.50;;
42840;SDS011;28491;46.898;7.660;2023-07-22T06:01:28;6.60;;;2.63;;
42840;SDS011;28491;46.898;7.660;2023-07-22T06:03:53;3.92;;;2.67;;
42840;SDS011;28491;46.898;7.660;2023-07-22T06:06:19;7.10;;;3.85;;
42840;SDS011;28491;46.898;7.660;2023-07-22T06:08:45;4.28;;;2.67;;
42840;SDS011;28491;46.898;7.660;2023-07-22T06:11:10;5.28;;;2.42;;
42840;SDS011;28491;46.898;7.660;2023-07-22T06:13:36;4.85;;;2.95;;
42840;SDS011;28491;46.898;7.660;2023-07-22T06:16:01;4.70;;;2.90;;
42840;SDS011;28491;46.898;7.660;2023-07-22T06:18:27;5.30;;;3.13;;
42840;SDS011;28491;46.898;7.660;2023-07-22T06:20:53;5.00;;;3.00;;
42840;SDS011;28491;46.898;7.660;2023-07-22T06:23:19;5.28;;;3.00;;
42840;SDS011;28491;46.898;7.660;2023-07-22T06:25:44;5.05;;;2.85;;
42840;SDS011;28491;46.898;7.660;2023-07-22T06:28:10;6.47;;;3.08;;
42840;SDS011;28491;46.898;7.660;2023-07-22T06:30:35;4.28;;;3.00;;
42840;SDS011;28491;46.898;7.660;2023-07-22T06:33:01;4.97;;;2.70;;
42840;SDS011;28491;46.898;7.660;2023-07-22T06:35:26;5.18;;;2.70;;
42840;SDS011;28491;46.898;7.660;2023-07-22T06:37:52;8.95;;;3.30;;
42840;SDS011;28491;46.898;7.660;2023-07-22T06:40:18;7.38;;;2.90;;
42840;SDS011;28491;46.898;7.660;2023-07-22T06:42:43;4.65;;;2.83;;
42840;SDS011;28491;46.898;7.660;2023-07-22T06:45:09;5.10;;;3.00;;
42840;SDS011;28491;46.898;7.660;2023-07-22T06:47:35;3.72;;;2.67;;
42840;SDS011;28491;46.898;7.660;2023-07-22T06:50:01;5.78;;;2.83;;
42840;SDS011;28491;46.898;7.660;2023-07-22T06:52:30;3.60;;;2.15;;
42840;SDS011;28491;46.898;7.660;2023-07-22T06:54:56;3.88;;;2.65;;
42840;SDS011;28491;46.898;7.660;2023-07-22T06:57:22;3.78;;;2.50;;
42840;SDS011;28491;46.898;7.660;2023-07-22T06:59:47;4.35;;;3.03;;
42840;SDS011;28491;46.898;7.660;2023-07-22T07:02:15;3.35;;;2.30;;
42840;SDS011;28491;46.898;7.660;2023-07-22T07:04:41;3.10;;;2.08;;
42840;SDS011;28491;46.898;7.660;2023-07-22T07:07:07;3.97;;;2.28;;
42840;SDS011;28491;46.898;7.660;2023-07-22T07:09:32;4.63;;;2.70;;
42840;SDS011;28491;46.898;7.660;2023-07-22T07:11:59;3.92;;;2.88;;
42840;SDS011;28491;46.898;7.660;2023-07-22T07:14:25;4.07;;;2.63;;
42840;SDS011;28491;46.898;7.660;2023-07-22T07:16:51;6.35;;;2.80;;
42840;SDS011;28491;46.898;7.660;2023-07-22T07:19:16;5.10;;;2.92;;
42840;SDS011;28491;46.898;7.660;2023-07-22T07:21:42;6.47;;;3.17;;
42840;SDS011;28491;46.898;7.660;2023-07-22T07:24:07;5.15;;;2.88;;
42840;SDS011;28491;46.898;7.660;2023-07-22T07:26:33;4.55;;;2.55;;
42840;SDS011;28491;46.898;7.660;2023-07-22T07:28:58;3.78;;;2.40;;
42840;SDS011;28491;46.898;7.660;2023-07-22T07:31:24;5.75;;;2.63;;
42840;SDS011;28491;46.898;7.660;2023-07-22T07:33:50;5.20;;;2.58;;
42840;SDS011;28491;46.898;7.660;2023-07-22T07:36:16;6.20;;;2.92;;
42840;SDS011;28491;46.898;7.660;2023-07-22T07:38:41;4.03;;;2.75;;
42840;SDS011;28491;46.898;7.660;2023-07-22T07:41:07;4.93;;;2.72;;
42840;SDS011;28491;46.898;7.660;2023-07-22T07:43:34;4.50;;;2.83;;
42840;SDS011;28491;46.898;7.660;2023-07-22T07:48:42;4.88;;;2.30;;
42840;SDS011;28491;46.898;7.660;2023-07-22T07:51:09;3.88;;;2.35;;
42840;SDS011;28491;46.898;7.660;2023-07-22T07:53:35;5.60;;;2.38;;
42840;SDS011;28491;46.898;7.660;2023-07-22T07:56:00;4.47;;;2.55;;
42840;SDS011;28491;46.898;7.660;2023-07-22T07:58:26;6.85;;;2.63;;
42840;SDS011;28491;46.898;7.660;2023-07-22T08:00:51;4.43;;;2.75;;
42840;SDS011;28491;46.898;7.660;2023-07-22T08:03:17;6.72;;;2.50;;
42840;SDS011;28491;46.898;7.660;2023-07-22T08:05:43;3.40;;;2.28;;
42840;SDS011;28491;46.898;7.660;2023-07-22T08:08:08;4.68;;;2.20;;
42840;SDS011;28491;46.898;7.660;2023-07-22T08:10:35;3.33;;;2.03;;
42840;SDS011;28491;46.898;7.660;2023-07-22T08:13:00;4.18;;;2.60;;
42840;SDS011;28491;46.898;7.660;2023-07-22T08:15:27;3.97;;;1.90;;
42840;SDS011;28491;46.898;7.660;2023-07-22T08:17:53;16.83;;;4.18;;
42840;SDS011;28491;46.898;7.660;2023-07-22T08:20:19;5.93;;;2.33;;
42840;SDS011;28491;46.898;7.660;2023-07-22T08:22:44;5.05;;;1.88;;
42840;SDS011;28491;46.898;7.660;2023-07-22T08:25:10;3.47;;;2.10;;
42840;SDS011;28491;46.898;7.660;2023-07-22T08:27:35;3.25;;;1.77;;
42840;SDS011;28491;46.898;7.660;2023-07-22T08:30:01;6.43;;;1.77;;
42840;SDS011;28491;46.898;7.660;2023-07-22T08:32:26;3.88;;;1.98;;
42840;SDS011;28491;46.898;7.660;2023-07-22T08:34:52;4.20;;;2.60;;
42840;SDS011;28491;46.898;7.660;2023-07-22T08:37:17;3.22;;;1.85;;
42840;SDS011;28491;46.898;7.660;2023-07-22T08:39:43;3.10;;;1.75;;
42840;SDS011;28491;46.898;7.660;2023-07-22T08:42:08;3.03;;;1.60;;
42840;SDS011;28491;46.898;7.660;2023-07-22T08:44:36;2.20;;;1.20;;
42840;SDS011;28491;46.898;7.660;2023-07-22T08:47:05;3.20;;;1.60;;
42840;SDS011;28491;46.898;7.660;2023-07-22T08:49:35;2.67;;;1.63;;
42840;SDS011;28491;46.898;7.660;2023-07-22T08:52:00;3.70;;;1.70;;
42840;SDS011;28491;46.898;7.660;2023-07-22T08:54:26;2.58;;;1.48;;
42840;SDS011;28491;46.898;7.660;2023-07-22T08:56:53;3.03;;;1.92;;
42840;SDS011;28491;46.898;7.660;2023-07-22T08:59:19;2.90;;;1.75;;
42840;SDS011;28491;46.898;7.660;2023-07-22T09:01:45;2.75;;;1.95;;
42840;SDS011;28491;46.898;7.660;2023-07-22T09:04:12;2.88;;;1.98;;
42840;SDS011;28491;46.898;7.660;2023-07-22T09:06:38;4.13;;;1.83;;
42840;SDS011;28491;46.898;7.660;2023-07-22T09:09:06;3.40;;;2.10;;
42840;SDS011;28491;46.898;7.660;2023-07-22T09:11:33;4.00;;;1.98;;
42840;SDS011;28491;46.898;7.660;2023-07-22T09:14:00;2.42;;;1.67;;
42840;SDS011;28491;46.898;7.660;2023-07-22T09:16:27;2.60;;;1.67;;
42840;SDS011;28491;46.898;7.660;2023-07-22T09:18:55;3.08;;;1.80;;
42840;SDS011;28491;46.898;7.660;2023-07-22T09:21:22;6.65;;;2.13;;
42840;SDS011;28491;46.898;7.660;2023-07-22T09:23:48;2.88;;;1.80;;
42840;SDS011;28491;46.898;7.660;2023-07-22T09:26:15;3.55;;;1.73;;
42840;SDS011;28491;46.898;7.660;2023-07-22T09:31:21;3.63;;;2.08;;
42840;SDS011;28491;46.898;7.660;2023-07-22T09:33:48;2.83;;;1.75;;
42840;SDS011;28491;46.898;7.660;2023-07-22T09:36:13;3.38;;;1.98;;
42840;SDS011;28491;46.898;7.660;2023-07-22T09:38:39;2.83;;;1.65;;
42840;SDS011;28491;46.898;7.660;2023-07-22T09:41:05;4.75;;;2.22;;
42840;SDS011;28491;46.898;7.660;2023-07-22T09:43:31;4.32;;;2.20;;
42840;SDS011;28491;46.898;7.660;2023-07-22T09:46:10;2.78;;;1.60;;
42840;SDS011;28491;46.898;7.660;2023-07-22T09:48:39;4.22;;;1.55;;
42840;SDS011;28491;46.898;7.660;2023-07-22T09:51:10;3.20;;;1.77;;
42840;SDS011;28491;46.898;7.660;2023-07-22T09:53:39;4.47;;;1.90;;
42840;SDS011;28491;46.898;7.660;2023-07-22T09:56:09;4.40;;;1.95;;
42840;SDS011;28491;46.898;7.660;2023-07-22T09:58:35;2.95;;;1.58;;
42840;SDS011;28491;46.898;7.660;2023-07-22T10:01:02;2.78;;;1.70;;
42840;SDS011;28491;46.898;7.660;2023-07-22T10:03:29;3.38;;;1.75;;
42840;SDS011;28491;46.898;7.660;2023-07-22T10:05:58;3.30;;;2.17;;
42840;SDS011;28491;46.898;7.660;2023-07-22T10:08:25;2.77;;;1.60;;
42840;SDS011;28491;46.898;7.660;2023-07-22T10:10:55;3.83;;;1.77;;
42840;SDS011;28491;46.898;7.660;2023-07-22T10:13:25;2.80;;;1.70;;
42840;SDS011;28491;46.898;7.660;2023-07-22T10:15:51;3.25;;;1.88;;
42840;SDS011;28491;46.898;7.660;2023-07-22T10:18:17;2.65;;;1.42;;
42840;SDS011;28491;46.898;7.660;2023-07-22T10:20:45;2.63;;;1.58;;
42840;SDS011;28491;46.898;7.660;2023-07-22T10:23:11;2.90;;;1.55;;
42840;SDS011;28491;46.898;7.660;2023-07-22T10:25:39;2.83;;;1.57;;
42840;SDS011;28491;46.898;7.660;2023-07-22T10:28:06;2.58;;;1.58;;
42840;SDS011;28491;46.898;7.660;2023-07-22T10:30:32;5.07;;;1.95;;
42840;SDS011;28491;46.898;7.660;2023-07-22T10:32:58;4.28;;;2.05;;
42840;SDS011;28491;46.898;7.660;2023-07-22T10:37:56;3.60;;;1.80;;
42840;SDS011;28491;46.898;7.660;2023-07-22T10:40:52;2.40;;;1.60;;
42840;SDS011;28491;46.898;7.660;2023-07-22T10:43:31;2.72;;;2.03;;
42840;SDS011;28491;46.898;7.660;2023-07-22T10:46:09;3.80;;;1.85;;
42840;SDS011;28491;46.898;7.660;2023-07-22T10:48:38;3.45;;;1.90;;
42840;SDS011;28491;46.898;7.660;2023-07-22T10:51:07;4.85;;;1.85;;
42840;SDS011;28491;46.898;7.660;2023-07-22T10:53:53;2.83;;;1.80;;
42840;SDS011;28491;46.898;7.660;2023-07-22T10:56:21;3.63;;;1.45;;
42840;SDS011;28491;46.898;7.660;2023-07-22T11:12:05;2.53;;;1.70;;
42840;SDS011;28491;46.898;7.660;2023-07-22T11:14:33;4.07;;;2.00;;
42840;SDS011;28491;46.898;7.660;2023-07-22T11:17:03;2.67;;;1.75;;
42840;SDS011;28491;46.898;7.660;2023-07-22T11:19:30;2.45;;;1.67;;
42840;SDS011;28491;46.898;7.660;2023-07-22T11:21:56;2.47;;;1.60;;
42840;SDS011;28491;46.898;7.660;2023-07-22T11:24:22;3.60;;;1.98;;
42840;SDS011;28491;46.898;7.660;2023-07-22T11:26:49;4.80;;;1.60;;
42840;SDS011;28491;46.898;7.660;2023-07-22T11:29:15;2.85;;;1.80;;
42840;SDS011;28491;46.898;7.660;2023-07-22T11:31:45;4.45;;;1.73;;
42840;SDS011;28491;46.898;7.660;2023-07-22T11:34:16;3.25;;;1.80;;
42840;SDS011;28491;46.898;7.660;2023-07-22T11:36:43;3.75;;;2.00;;
42840;SDS011;28491;46.898;7.660;2023-07-22T11:39:13;4.00;;;1.80;;
42840;SDS011;28491;46.898;7.660;2023-07-22T11:41:50;3.88;;;1.50;;
42840;SDS011;28491;46.898;7.660;2023-07-22T11:44:20;2.53;;;1.55;;
42840;SDS011;28491;46.898;7.660;2023-07-22T11:49:27;2.88;;;1.67;;
42840;SDS011;28491;46.898;7.660;2023-07-22T12:20:33;4.28;;;1.73;;
42840;SDS011;28491;46.898;7.660;2023-07-22T12:26:29;3.15;;;1.92;;
42840;SDS011;28491;46.898;7.660;2023-07-22T12:28:55;2.85;;;1.48;;
42840;SDS011;28491;46.898;7.660;2023-07-22T12:31:24;2.60;;;1.65;;
42840;SDS011;28491;46.898;7.660;2023-07-22T12:33:52;2.95;;;1.50;;
42840;SDS011;28491;46.898;7.660;2023-07-22T12:36:23;2.85;;;1.65;;
42840;SDS011;28491;46.898;7.660;2023-07-22T12:38:51;2.97;;;1.60;;
42840;SDS011;28491;46.898;7.660;2023-07-22T12:41:17;3.30;;;1.90;;
42840;SDS011;28491;46.898;7.660;2023-07-22T12:43:48;2.38;;;1.48;;
42840;SDS011;28491;46.898;7.660;2023-07-22T12:46:35;3.55;;;1.90;;
42840;SDS011;28491;46.898;7.660;2023-07-22T12:49:01;2.75;;;1.55;;
42840;SDS011;28491;46.898;7.660;2023-07-22T12:51:26;3.65;;;1.77;;
42840;SDS011;28491;46.898;7.660;2023-07-22T12:53:52;7.80;;;2.78;;
42840;SDS011;28491;46.898;7.660;2023-07-22T12:56:17;2.38;;;1.50;;
42840;SDS011;28491;46.898;7.660;2023-07-22T12:58:43;4.50;;;1.83;;
42840;SDS011;28491;46.898;7.660;2023-07-22T13:01:08;2.60;;;1.52;;
42840;SDS011;28491;46.898;7.660;2023-07-22T13:03:34;2.40;;;1.23;;
42840;SDS011;28491;46.898;7.660;2023-07-22T13:06:00;2.75;;;1.55;;
42840;SDS011;28491;46.898;7.660;2023-07-22T13:08:25;2.25;;;1.40;;
42840;SDS011;28491;46.898;7.660;2023-07-22T13:10:51;4.05;;;1.55;;
42840;SDS011;28491;46.898;7.660;2023-07-22T13:13:16;2.55;;;1.52;;
42840;SDS011;28491;46.898;7.660;2023-07-22T13:15:42;2.33;;;1.67;;
42840;SDS011;28491;46.898;7.660;2023-07-22T13:18:07;3.60;;;2.03;;
42840;SDS011;28491;46.898;7.660;2023-07-22T13:20:33;2.38;;;1.30;;
42840;SDS011;28491;46.898;7.660;2023-07-22T13:22:58;3.58;;;1.92;;
42840;SDS011;28491;46.898;7.660;2023-07-22T13:25:24;3.42;;;1.90;;
42840;SDS011;28491;46.898;7.660;2023-07-22T13:27:49;2.50;;;1.52;;
42840;SDS011;28491;46.898;7.660;2023-07-22T13:30:15;2.67;;;1.48;;
42840;SDS011;28491;46.898;7.660;2023-07-22T13:32:41;4.45;;;1.77;;
42840;SDS011;28491;46.898;7.660;2023-07-22T13:35:06;2.15;;;1.60;;
42840;SDS011;28491;46.898;7.660;2023-07-22T13:37:33;3.78;;;2.17;;
42840;SDS011;28491;46.898;7.660;2023-07-22T13:39:59;3.03;;;1.63;;
42840;SDS011;28491;46.898;7.660;2023-07-22T13:42:25;3.50;;;1.60;;
42840;SDS011;28491;46.898;7.660;2023-07-22T13:44:50;2.35;;;1.33;;
42840;SDS011;28491;46.898;7.660;2023-07-22T13:47:16;5.97;;;2.65;;
42840;SDS011;28491;46.898;7.660;2023-07-22T13:49:41;2.75;;;1.60;;
42840;SDS011;28491;46.898;7.660;2023-07-22T13:52:07;2.80;;;1.55;;
42840;SDS011;28491;46.898;7.660;2023-07-22T13:54:32;3.05;;;1.95;;
42840;SDS011;28491;46.898;7.660;2023-07-22T13:56:58;3.75;;;1.73;;
42840;SDS011;28491;46.898;7.660;2023-07-22T13:59:24;2.85;;;1.50;;
42840;SDS011;28491;46.898;7.660;2023-07-22T14:01:49;2.90;;;1.67;;
42840;SDS011;28491;46.898;7.660;2023-07-22T17:41:27;2.75;;;1.60;;
42840;SDS011;28491;46.898;7.660;2023-07-22T17:43:52;2.30;;;1.40;;
42840;SDS011;28491;46.898;7.660;2023-07-22T17:46:18;2.85;;;1.80;;
42840;SDS011;28491;46.898;7.660;2023-07-22T17:48:43;2.97;;;1.98;;
42840;SDS011;28491;46.898;7.660;2023-07-22T17:51:09;6.55;;;2.75;;
42840;SDS011;28491;46.898;7.660;2023-07-22T17:53:35;3.10;;;1.85;;
42840;SDS011;28491;46.898;7.660;2023-07-22T17:56:00;2.45;;;1.50;;
42840;SDS011;28491;46.898;7.660;2023-07-22T17:58:26;2.47;;;1.70;;
42840;SDS011;28491;46.898;7.660;2023-07-22T18:00:52;3.22;;;1.67;;
42840;SDS011;28491;46.898;7.660;2023-07-22T18:03:17;3.03;;;1.65;;
42840;SDS011;28491;46.898;7.660;2023-07-22T18:05:46;3.28;;;1.90;;
42840;SDS011;28491;46.898;7.660;2023-07-22T18:08:12;3.67;;;2.30;;
42840;SDS011;28491;46.898;7.660;2023-07-22T18:10:38;3.35;;;1.95;;
42840;SDS011;28491;46.898;7.660;2023-07-22T18:13:04;2.67;;;1.65;;
42840;SDS011;28491;46.898;7.660;2023-07-22T18:15:29;3.58;;;2.17;;
42840;SDS011;28491;46.898;7.660;2023-07-22T18:17:55;2.45;;;1.40;;
42840;SDS011;28491;46.898;7.660;2023-07-22T18:20:21;2.42;;;1.60;;
42840;SDS011;28491;46.898;7.660;2023-07-22T18:22:47;3.58;;;1.88;;
42840;SDS011;28491;46.898;7.660;2023-07-22T18:25:12;6.63;;;1.77;;
42840;SDS011;28491;46.898;7.660;2023-07-22T18:27:39;3.10;;;2.00;;
42840;SDS011;28491;46.898;7.660;2023-07-22T18:30:05;5.63;;;3.63;;
42840;SDS011;28491;46.898;7.660;2023-07-22T18:32:31;5.57;;;3.15;;
42840;SDS011;28491;46.898;7.660;2023-07-22T18:34:57;3.10;;;2.10;;
42840;SDS011;28491;46.898;7.660;2023-07-22T18:37:23;2.90;;;1.88;;
42840;SDS011;28491;46.898;7.660;2023-07-22T18:39:52;3.90;;;1.95;;
42840;SDS011;28491;46.898;7.660;2023-07-22T18:42:18;3.17;;;1.90;;
42840;SDS011;28491;46.898;7.660;2023-07-22T18:44:44;4.40;;;1.70;;
42840;SDS011;28491;46.898;7.660;2023-07-22T18:47:09;3.17;;;1.90;;
42840;SDS011;28491;46.898;7.660;2023-07-22T18:49:35;4.03;;;2.22;;
42840;SDS011;28491;46.898;7.660;2023-07-22T18:52:00;4.05;;;2.22;;
42840;SDS011;28491;46.898;7.660;2023-07-22T18:54:26;3.17;;;1.90;;
42840;SDS011;28491;46.898;7.660;2023-07-22T18:56:52;3.33;;;2.00;;
42840;SDS011;28491;46.898;7.660;2023-07-22T18:59:17;3.75;;;2.30;;
42840;SDS011;28491;46.898;7.660;2023-07-22T19:01:43;3.20;;;1.70;;
42840;SDS011;28491;46.898;7.660;2023-07-22T19:04:12;3.00;;;2.03;;
42840;SDS011;28491;46.898;7.660;2023-07-22T19:06:38;4.55;;;2.47;;
42840;SDS011;28491;46.898;7.660;2023-07-22T19:09:03;3.50;;;2.15;;
42840;SDS011;28491;46.898;7.660;2023-07-22T19:11:29;5.57;;;2.33;;
42840;SDS011;28491;46.898;7.660;2023-07-22T19:13:55;3.88;;;2.38;;
42840;SDS011;28491;46.898;7.660;2023-07-22T19:16:24;3.13;;;2.05;;
42840;SDS011;28491;46.898;7.660;2023-07-22T19:18:50;3.10;;;1.80;;